createdAt,value
2023-02-05T00:00:46.220Z,42.68
2023-02-05T00:03:13.018Z,42.97
2023-02-05T00:05:39.830Z,42.69
2023-02-05T00:08:06.589Z,42.90
2023-02-05T00:10:33.530Z,42.82
2023-02-05T00:13:00.266Z,42.70
2023-02-05T00:15:27.031Z,42.70
2023-02-05T00:17:53.771Z,42.72
2023-02-05T00:20:20.739Z,42.62
2023-02-05T00:22:47.492Z,42.98
2023-02-05T00:25:14.258Z,43.06
2023-02-05T00:27:41.065Z,42.94
2023-02-05T00:30:08.640Z,42.87
2023-02-05T00:32:35.440Z,42.92
2023-02-05T00:35:02.186Z,42.98
2023-02-05T00:37:28.889Z,43.01
2023-02-05T00:39:55.666Z,42.89
2023-02-05T00:42:22.440Z,42.93
2023-02-05T00:44:49.246Z,42.97
2023-02-05T00:47:16.055Z,42.98
2023-02-05T00:49:42.855Z,43.15
2023-02-05T00:52:09.658Z,43.42
2023-02-05T00:54:37.455Z,43.12
2023-02-05T00:57:04.433Z,43.43
2023-02-05T00:59:31.152Z,43.04
2023-02-05T01:01:57.935Z,43.21
2023-02-05T01:04:24.690Z,43.11
2023-02-05T01:06:51.537Z,43.23
2023-02-05T01:09:18.355Z,42.93
2023-02-05T01:11:45.165Z,43.11
2023-02-05T01:14:11.857Z,43.21
2023-02-05T01:16:38.646Z,43.00
2023-02-05T01:19:05.482Z,43.02
2023-02-05T01:21:32.203Z,42.84
2023-02-05T01:24:01.619Z,42.75
2023-02-05T01:26:28.498Z,43.18
2023-02-05T01:28:55.305Z,43.17
2023-02-05T01:31:22.442Z,43.14
2023-02-05T01:33:49.243Z,43.10
2023-02-05T01:36:16.706Z,42.87
2023-02-05T01:38:43.478Z,43.14
2023-02-05T01:41:12.337Z,43.37
2023-02-05T01:43:39.259Z,43.66
2023-02-05T01:46:24.302Z,43.58
2023-02-05T01:48:54.708Z,43.62
2023-02-05T01:51:22.606Z,43.93
2023-02-05T01:53:49.962Z,44.18
2023-02-05T01:56:22.179Z,44.03
2023-02-05T01:59:00.672Z,44.00
2023-02-05T02:01:29.106Z,44.19
2023-02-05T02:03:59.624Z,45.00
2023-02-05T02:06:26.677Z,44.90
2023-02-05T02:08:53.526Z,45.11
2023-02-05T02:11:23.232Z,45.25
2023-02-05T02:13:53.215Z,45.40
2023-02-05T02:16:21.153Z,45.10
2023-02-05T02:18:47.995Z,45.04
2023-02-05T02:21:42.469Z,45.03
2023-02-05T02:24:14.059Z,45.28
2023-02-05T02:26:55.952Z,45.30
2023-02-05T02:29:47.180Z,46.08
2023-02-05T02:32:25.838Z,45.88
2023-02-05T02:35:18.282Z,45.74
2023-02-05T02:37:56.874Z,45.78
2023-02-05T02:40:45.687Z,45.69
2023-02-05T02:43:32.794Z,46.03
2023-02-05T02:46:09.231Z,45.94
2023-02-05T02:48:39.476Z,46.03
2023-02-05T02:51:08.494Z,45.53
2023-02-05T02:53:39.945Z,45.71
2023-02-05T02:56:10.946Z,45.50
2023-02-05T02:58:56.531Z,45.56
2023-02-05T03:01:26.022Z,45.25
2023-02-05T03:03:59.409Z,45.42
2023-02-05T03:06:30.502Z,45.62
2023-02-05T03:09:29.722Z,45.45
2023-02-05T03:11:56.523Z,45.72
2023-02-05T03:14:25.010Z,46.08
2023-02-05T03:16:53.837Z,46.44
2023-02-05T03:19:20.836Z,46.08
2023-02-05T03:21:54.353Z,45.84
2023-02-05T03:24:22.564Z,46.04
2023-02-05T03:26:49.391Z,46.05
2023-02-05T03:29:27.172Z,46.10
2023-02-05T03:32:17.383Z,46.06
2023-02-05T03:34:50.398Z,45.98
2023-02-05T03:37:40.097Z,45.79
2023-02-05T03:40:40.769Z,45.96
2023-02-05T03:43:19.650Z,46.41
2023-02-05T03:45:56.793Z,46.52
2023-02-05T03:48:32.694Z,46.74
2023-02-05T03:51:23.634Z,46.71
2023-02-05T03:54:08.218Z,46.72
2023-02-05T03:56:54.668Z,46.80
2023-02-05T03:59:23.340Z,46.80
2023-02-05T04:01:51.277Z,46.89
2023-02-05T04:04:19.229Z,47.06
2023-02-05T04:06:47.825Z,47.74
2023-02-05T04:09:14.658Z,47.98
2023-02-05T04:11:41.405Z,47.66
2023-02-05T04:14:08.276Z,47.48
2023-02-05T04:16:37.013Z,47.26
2023-02-05T04:19:04.099Z,48.41
2023-02-05T04:21:30.913Z,47.33
2023-02-05T04:23:58.569Z,47.18
2023-02-05T04:26:25.870Z,47.03
2023-02-05T04:29:03.003Z,47.20
2023-02-05T04:31:33.064Z,47.10
2023-02-05T04:34:00.937Z,47.05
2023-02-05T04:36:27.710Z,46.92
2023-02-05T04:38:54.562Z,47.33
2023-02-05T04:41:22.469Z,46.84
2023-02-05T04:43:49.230Z,47.19
2023-02-05T04:46:16.149Z,46.95
2023-02-05T04:48:43.085Z,46.69
2023-02-05T04:51:12.026Z,46.59
2023-02-05T04:53:39.306Z,46.56
2023-02-05T04:56:15.123Z,46.63
2023-02-05T04:58:42.686Z,47.18
2023-02-05T05:01:18.216Z,47.30
2023-02-05T05:03:45.704Z,47.45
2023-02-05T05:06:12.865Z,47.83
2023-02-05T05:08:39.778Z,47.96
2023-02-05T05:11:12.060Z,47.83
2023-02-05T05:13:39.189Z,47.98
2023-02-05T05:16:07.894Z,48.20
2023-02-05T05:18:35.157Z,48.16
2023-02-05T05:21:02.481Z,48.22
2023-02-05T05:23:29.853Z,48.72
2023-02-05T05:25:56.583Z,48.35
2023-02-05T05:28:23.380Z,48.38
2023-02-05T05:30:50.664Z,48.68
2023-02-05T05:33:17.472Z,48.83
2023-02-05T05:35:45.710Z,48.86
2023-02-05T05:38:12.677Z,48.72
2023-02-05T05:40:58.430Z,48.66
2023-02-05T05:43:43.815Z,48.40
2023-02-05T05:46:10.697Z,47.93
2023-02-05T05:48:37.555Z,47.95
2023-02-05T05:51:04.595Z,48.12
2023-02-05T05:53:31.694Z,48.66
2023-02-05T05:55:58.851Z,48.36
2023-02-05T05:58:25.610Z,48.43
2023-02-05T06:00:52.398Z,48.14
2023-02-05T06:03:19.143Z,48.65
2023-02-05T06:05:45.990Z,49.20
2023-02-05T06:08:14.043Z,49.09
2023-02-05T06:10:40.802Z,49.44
2023-02-05T06:13:08.849Z,49.52
2023-02-05T06:15:36.037Z,49.61
2023-02-05T06:18:03.124Z,49.85
2023-02-05T06:20:29.858Z,49.89
2023-02-05T06:22:56.682Z,49.85
2023-02-05T06:25:23.475Z,50.24
2023-02-05T06:27:50.253Z,50.27
2023-02-05T06:30:17.086Z,50.02
2023-02-05T06:32:43.841Z,50.15
2023-02-05T06:35:10.542Z,50.33
2023-02-05T06:37:48.520Z,50.05
2023-02-05T06:40:18.099Z,50.25
2023-02-05T06:42:45.546Z,50.61
2023-02-05T06:45:12.528Z,50.27
2023-02-05T06:47:39.539Z,50.36
2023-02-05T06:50:08.195Z,50.33
2023-02-05T06:52:34.990Z,50.59
2023-02-05T06:55:01.808Z,50.24
2023-02-05T06:57:28.606Z,50.78
2023-02-05T06:59:55.360Z,50.73
2023-02-05T07:02:22.197Z,50.69
2023-02-05T07:04:49.102Z,51.16
2023-02-05T07:07:17.225Z,51.25
2023-02-05T07:09:44.120Z,51.37
2023-02-05T07:12:11.020Z,51.25
2023-02-05T07:14:39.386Z,51.41
2023-02-05T07:17:06.328Z,51.78
2023-02-05T07:19:33.604Z,51.85
2023-02-05T07:22:00.350Z,51.69
2023-02-05T07:24:27.325Z,52.27
2023-02-05T07:26:54.065Z,52.32
2023-02-05T07:29:20.938Z,52.22
2023-02-05T07:31:49.950Z,51.89
2023-02-05T07:34:16.795Z,52.40
2023-02-05T07:36:43.576Z,52.54
2023-02-05T07:39:10.417Z,52.01
2023-02-05T07:41:37.198Z,52.27
2023-02-05T07:44:05.216Z,52.03
2023-02-05T07:46:31.992Z,52.10
2023-02-05T07:48:58.991Z,52.17
2023-02-05T07:51:26.847Z,51.75
2023-02-05T07:53:54.051Z,51.96
2023-02-05T07:56:25.764Z,52.25
2023-02-05T07:58:52.673Z,51.78
2023-02-05T08:01:19.471Z,51.31
2023-02-05T08:03:46.447Z,51.44
2023-02-05T08:06:15.458Z,51.16
2023-02-05T08:08:42.631Z,50.79
2023-02-05T08:11:14.815Z,50.45
2023-02-05T08:13:42.414Z,50.00
2023-02-05T08:16:10.233Z,52.23
2023-02-05T08:18:37.207Z,55.59
2023-02-05T08:21:04.441Z,50.37
2023-02-05T08:23:31.166Z,50.73
2023-02-05T08:25:59.018Z,50.85
2023-02-05T08:28:27.631Z,49.28
2023-02-05T08:30:56.436Z,50.60
2023-02-05T08:33:23.957Z,48.76
2023-02-05T08:35:51.032Z,48.82
2023-02-05T08:38:17.761Z,50.20
2023-02-05T08:40:44.810Z,49.32
2023-02-05T08:43:12.225Z,50.94
2023-02-05T08:45:39.205Z,49.57
2023-02-05T08:48:06.117Z,49.41
2023-02-05T08:50:32.915Z,48.27
2023-02-05T08:52:59.620Z,48.32
2023-02-05T08:55:26.474Z,47.37
2023-02-05T08:57:53.234Z,47.61
2023-02-05T09:00:21.231Z,47.59
2023-02-05T09:02:47.951Z,47.84
2023-02-05T09:05:14.649Z,47.59
2023-02-05T09:07:41.948Z,47.32
2023-02-05T09:10:14.344Z,47.12
2023-02-05T09:12:41.198Z,46.96
2023-02-05T09:15:08.774Z,47.06
2023-02-05T09:17:35.781Z,46.77
2023-02-05T09:20:02.988Z,46.40
2023-02-05T09:22:29.791Z,46.20
2023-02-05T09:24:56.553Z,46.54
2023-02-05T09:27:23.337Z,46.49
2023-02-05T09:29:50.061Z,46.10
2023-02-05T09:32:16.878Z,46.07
2023-02-05T09:34:43.625Z,45.83
2023-02-05T09:37:10.433Z,45.64
2023-02-05T09:40:19.432Z,45.39
2023-02-05T09:42:45.469Z,45.00
2023-02-05T09:45:40.265Z,45.22
2023-02-05T09:48:10.639Z,44.79
2023-02-05T09:50:39.340Z,44.72
2023-02-05T09:53:12.397Z,44.80
2023-02-05T09:55:44.986Z,44.86
2023-02-05T09:58:16.567Z,44.53
2023-02-05T10:00:50.027Z,44.41
2023-02-05T10:03:42.394Z,44.43
2023-02-05T10:06:30.884Z,44.17
2023-02-05T10:09:32.598Z,44.42
2023-02-05T10:12:43.700Z,44.43
2023-02-05T10:15:30.748Z,44.55
2023-02-05T10:18:13.305Z,44.29
2023-02-05T10:20:58.152Z,43.99
2023-02-05T10:23:40.157Z,44.86
2023-02-05T10:26:14.896Z,43.88
2023-02-05T10:29:11.043Z,43.59
2023-02-05T10:31:56.243Z,43.57
2023-02-05T10:34:38.130Z,43.24
2023-02-05T10:37:12.067Z,43.09
2023-02-05T10:39:38.961Z,42.81
2023-02-05T10:42:12.106Z,42.70
2023-02-05T10:44:44.907Z,42.90
2023-02-05T10:47:37.445Z,42.55
2023-02-05T10:50:14.337Z,42.50
2023-02-05T10:52:41.103Z,42.28
2023-02-05T10:55:13.117Z,42.67
2023-02-05T10:57:39.749Z,42.15
2023-02-05T11:00:19.558Z,41.94
2023-02-05T11:02:50.276Z,41.69
2023-02-05T11:05:24.321Z,41.91
2023-02-05T11:07:53.258Z,41.54
2023-02-05T11:10:24.267Z,41.49
2023-02-05T11:13:02.550Z,41.54
2023-02-05T11:15:31.971Z,41.13
2023-02-05T11:18:00.586Z,41.18
2023-02-05T11:20:34.006Z,40.92
2023-02-05T11:23:21.584Z,40.74
2023-02-05T11:26:15.982Z,40.72
2023-02-05T11:28:42.813Z,40.17
2023-02-05T11:31:31.498Z,40.05
2023-02-05T11:34:07.515Z,39.72
2023-02-05T11:36:36.310Z,39.38
2023-02-05T11:39:05.283Z,39.05
2023-02-05T11:41:51.968Z,38.91
2023-02-05T11:44:30.520Z,38.62
2023-02-05T11:47:00.574Z,38.13
2023-02-05T11:49:39.398Z,37.70
2023-02-05T11:52:15.222Z,37.69
2023-02-05T11:54:47.672Z,37.34
2023-02-05T11:57:20.376Z,36.99
2023-02-05T12:00:18.126Z,36.44
2023-02-05T12:02:45.417Z,37.25
2023-02-05T12:05:12.227Z,36.32
2023-02-05T12:07:47.814Z,35.94
2023-02-05T12:10:17.874Z,36.08
2023-02-05T12:13:02.763Z,35.90
2023-02-05T12:15:37.523Z,35.45
2023-02-05T12:18:07.235Z,35.24
2023-02-05T12:21:09.450Z,35.00
2023-02-05T12:23:57.815Z,34.58
2023-02-05T12:26:39.169Z,34.74
2023-02-05T12:29:32.205Z,34.49
2023-02-05T12:32:19.422Z,34.70
2023-02-05T12:35:10.252Z,37.04
2023-02-05T12:37:42.680Z,38.09
2023-02-05T12:40:33.483Z,39.08
2023-02-05T12:43:12.997Z,37.56
2023-02-05T12:45:45.710Z,37.68
2023-02-05T12:48:39.284Z,37.56
2023-02-05T12:51:42.889Z,37.33
2023-02-05T12:54:24.779Z,37.25
2023-02-05T12:57:15.684Z,36.86
2023-02-05T12:59:45.872Z,36.28
2023-02-05T13:02:27.718Z,36.61
2023-02-05T13:05:21.703Z,36.47
2023-02-05T13:07:59.710Z,35.72
2023-02-05T13:10:46.015Z,35.04
2023-02-05T13:13:19.516Z,35.04
2023-02-05T13:15:51.981Z,35.28
2023-02-05T13:18:27.773Z,35.56
2023-02-05T13:21:38.793Z,35.77
2023-02-05T13:24:51.753Z,35.42
2023-02-05T13:27:58.879Z,36.00
2023-02-05T13:30:34.907Z,36.60
2023-02-05T13:33:05.721Z,37.43
2023-02-05T13:35:43.422Z,37.59
2023-02-05T13:38:40.109Z,39.53
2023-02-05T13:41:12.786Z,39.15
2023-02-05T13:43:48.387Z,38.77
2023-02-05T13:46:30.540Z,40.15
2023-02-05T13:49:09.231Z,39.92
2023-02-05T13:52:03.199Z,39.47
2023-02-05T13:54:38.852Z,42.16
2023-02-05T13:57:24.092Z,41.88
2023-02-05T14:00:00.468Z,39.96
2023-02-05T14:02:34.444Z,41.62
2023-02-05T14:05:05.674Z,41.07
2023-02-05T14:07:45.088Z,41.11
2023-02-05T14:10:36.330Z,41.10
2023-02-05T14:13:12.419Z,43.84
2023-02-05T14:15:42.473Z,44.69
2023-02-05T14:18:33.245Z,45.70
2023-02-05T14:21:00.017Z,45.42
2023-02-05T14:23:49.125Z,45.40
2023-02-05T14:26:37.703Z,45.24
2023-02-05T14:29:44.014Z,45.41
2023-02-05T14:32:39.457Z,43.82
2023-02-05T14:35:32.966Z,42.97
2023-02-05T14:38:19.885Z,41.30
2023-02-05T14:41:08.493Z,40.47
2023-02-05T14:43:38.216Z,40.62
2023-02-05T14:46:26.125Z,39.10
2023-02-05T14:48:59.031Z,38.89
2023-02-05T14:51:44.086Z,38.06
2023-02-05T14:54:23.905Z,38.03
2023-02-05T14:57:59.615Z,38.69
2023-02-05T15:00:04.790Z,38.95
2023-02-05T15:02:55.866Z,39.12
2023-02-05T15:05:41.571Z,39.81
2023-02-05T15:08:17.019Z,39.16
2023-02-05T15:11:24.034Z,38.94
2023-02-05T15:14:19.775Z,38.87
2023-02-05T15:17:05.069Z,38.70
2023-02-05T15:19:43.236Z,39.37
2023-02-05T15:22:34.076Z,39.70
2023-02-05T15:25:03.484Z,39.86
2023-02-05T15:27:43.415Z,39.67
2023-02-05T15:30:18.236Z,40.27
2023-02-05T15:32:55.769Z,40.45
2023-02-05T15:35:26.042Z,40.57
2023-02-05T15:38:01.444Z,40.21
2023-02-05T15:40:32.204Z,39.41
2023-02-05T15:43:25.146Z,39.44
2023-02-05T15:46:07.862Z,40.30
2023-02-05T15:48:39.846Z,41.18
2023-02-05T15:51:33.660Z,41.33
2023-02-05T15:54:05.132Z,40.51
2023-02-05T15:56:38.072Z,40.98
2023-02-05T15:59:10.934Z,42.01
2023-02-05T16:01:45.084Z,43.11
2023-02-05T16:04:37.369Z,44.08
2023-02-05T16:07:19.710Z,44.28
2023-02-05T16:09:48.897Z,44.41
2023-02-05T16:12:15.899Z,44.85
2023-02-05T16:14:43.885Z,45.50
2023-02-05T16:17:26.423Z,46.23
2023-02-05T16:19:56.731Z,46.30
2023-02-05T16:22:35.978Z,46.76
2023-02-05T16:25:26.834Z,48.10
2023-02-05T16:27:55.647Z,48.07
2023-02-05T16:30:42.919Z,48.00
2023-02-05T16:33:38.139Z,48.10
2023-02-05T16:36:15.452Z,47.89
2023-02-05T16:38:42.624Z,47.99
2023-02-05T16:41:31.843Z,49.25
2023-02-05T16:44:01.659Z,49.77
2023-02-05T16:46:33.228Z,49.77
2023-02-05T16:49:08.745Z,50.81
2023-02-05T16:51:59.386Z,51.74
2023-02-05T16:54:31.028Z,52.97
2023-02-05T16:57:24.942Z,53.88
2023-02-05T17:00:01.937Z,54.70
2023-02-05T17:02:40.685Z,54.92
2023-02-05T17:05:30.323Z,55.16
2023-02-05T17:08:00.999Z,54.99
2023-02-05T17:10:33.612Z,55.21
2023-02-05T17:13:06.018Z,55.35
2023-02-05T17:15:45.493Z,55.33
2023-02-05T17:18:26.495Z,55.23
2023-02-05T17:21:31.951Z,54.83
2023-02-05T17:24:01.559Z,54.49
2023-02-05T17:26:35.101Z,54.45
2023-02-05T17:29:15.260Z,54.37
2023-02-05T17:31:47.817Z,54.39
2023-02-05T17:34:21.887Z,54.34
2023-02-05T17:36:48.749Z,53.92
2023-02-05T17:39:15.475Z,54.57
2023-02-05T17:42:02.679Z,54.22
2023-02-05T17:44:39.651Z,53.69
2023-02-05T17:47:10.300Z,53.42
2023-02-05T17:49:39.924Z,53.12
2023-02-05T17:52:15.487Z,52.98
2023-02-05T17:54:51.119Z,52.17
2023-02-05T17:57:20.824Z,51.49
2023-02-05T17:59:57.894Z,51.15
2023-02-05T18:02:26.164Z,51.13
2023-02-05T18:04:56.001Z,51.33
2023-02-05T18:07:32.760Z,51.32
2023-02-05T18:10:04.343Z,51.12
2023-02-05T18:12:35.012Z,51.31
2023-02-05T18:15:18.767Z,51.25
2023-02-05T18:17:50.019Z,51.60
2023-02-05T18:20:21.164Z,51.80
2023-02-05T18:23:06.074Z,52.22
2023-02-05T18:25:32.991Z,53.13
2023-02-05T18:28:00.198Z,52.89
2023-02-05T18:30:27.416Z,53.44
2023-02-05T18:32:54.603Z,53.73
2023-02-05T18:35:21.406Z,53.74
2023-02-05T18:37:50.139Z,53.69
2023-02-05T18:40:18.986Z,53.71
2023-02-05T18:42:52.083Z,53.75
2023-02-05T18:45:19.587Z,54.70
2023-02-05T18:47:48.764Z,55.35
2023-02-05T18:50:19.632Z,55.12
2023-02-05T18:52:50.877Z,54.92
2023-02-05T18:55:21.934Z,54.73
2023-02-05T18:57:51.907Z,54.60
2023-02-05T19:00:19.307Z,52.33
2023-02-05T19:02:50.622Z,53.08
2023-02-05T19:05:17.514Z,52.47
2023-02-05T19:07:47.804Z,52.34
2023-02-05T19:10:15.263Z,49.10
2023-02-05T19:12:42.094Z,50.52
2023-02-05T19:15:09.446Z,52.17
2023-02-05T19:17:36.180Z,52.41
2023-02-05T19:20:03.175Z,53.17
2023-02-05T19:22:30.086Z,53.57
2023-02-05T19:24:56.857Z,54.31
2023-02-05T19:27:25.191Z,54.47
2023-02-05T19:29:52.227Z,54.71
2023-02-05T19:32:19.150Z,55.79
2023-02-05T19:34:46.681Z,55.38
2023-02-05T19:37:13.650Z,55.75
2023-02-05T19:39:40.474Z,55.94
2023-02-05T19:42:07.579Z,56.08
2023-02-05T19:44:37.596Z,56.25
2023-02-05T19:47:06.893Z,56.77
2023-02-05T19:49:33.733Z,49.61
2023-02-05T19:52:01.465Z,48.05
2023-02-05T19:54:29.493Z,47.92
2023-02-05T19:56:56.450Z,48.56
2023-02-05T19:59:23.360Z,48.75
2023-02-05T20:01:50.573Z,48.37
2023-02-05T20:04:22.747Z,47.92
2023-02-05T20:06:49.497Z,47.79
2023-02-05T20:09:17.047Z,47.55
2023-02-05T20:11:46.655Z,47.79
2023-02-05T20:14:14.838Z,47.95
2023-02-05T20:16:42.052Z,47.64
2023-02-05T20:19:12.622Z,47.95
2023-02-05T20:21:40.112Z,48.01
2023-02-05T20:24:08.114Z,47.73
2023-02-05T20:26:36.590Z,47.91
2023-02-05T20:29:22.673Z,47.87
2023-02-05T20:31:54.865Z,47.68
2023-02-05T20:34:25.951Z,47.54
2023-02-05T20:36:54.217Z,47.51
2023-02-05T20:39:23.161Z,47.88
2023-02-05T20:41:52.081Z,48.06
2023-02-05T20:44:19.443Z,48.16
2023-02-05T20:46:51.021Z,48.22
2023-02-05T20:49:22.936Z,48.64
2023-02-05T20:52:03.893Z,48.79
2023-02-05T20:54:33.221Z,48.78
2023-02-05T20:57:05.356Z,49.22
2023-02-05T20:59:35.623Z,49.23
2023-02-05T21:02:05.692Z,49.45
2023-02-05T21:04:43.944Z,49.13
2023-02-05T21:07:14.680Z,49.16
2023-02-05T21:09:41.991Z,49.16
2023-02-05T21:12:08.798Z,49.48
2023-02-05T21:14:38.942Z,49.72
2023-02-05T21:17:11.297Z,49.96
2023-02-05T21:19:41.365Z,49.84
2023-02-05T21:22:08.334Z,50.33
2023-02-05T21:24:35.393Z,50.30
2023-02-05T21:27:08.656Z,50.44
2023-02-05T21:29:35.494Z,50.75
2023-02-05T21:32:02.331Z,51.48
2023-02-05T21:34:29.739Z,51.27
2023-02-05T21:37:14.764Z,51.57
2023-02-05T21:39:45.811Z,51.39
2023-02-05T21:42:12.753Z,50.97
2023-02-05T21:44:39.499Z,51.28
2023-02-05T21:47:06.469Z,51.41
2023-02-05T21:49:33.380Z,51.94
2023-02-05T21:52:00.231Z,52.00
2023-02-05T21:54:36.307Z,51.85
2023-02-05T21:57:03.143Z,51.76
2023-02-05T21:59:29.921Z,51.65
2023-02-05T22:01:56.801Z,52.16
2023-02-05T22:04:23.600Z,52.48
2023-02-05T22:06:53.299Z,53.52
2023-02-05T22:09:20.614Z,54.58
2023-02-05T22:11:49.212Z,55.14
2023-02-05T22:14:21.232Z,55.16
2023-02-05T22:16:48.007Z,54.92
2023-02-05T22:19:17.587Z,55.97
2023-02-05T22:21:51.199Z,56.24
2023-02-05T22:24:19.303Z,56.21
2023-02-05T22:26:49.285Z,56.47
2023-02-05T22:29:19.573Z,56.21
2023-02-05T22:31:51.095Z,56.50
2023-02-05T22:34:46.654Z,56.45
2023-02-05T22:37:13.823Z,56.50
2023-02-05T22:39:46.223Z,56.60
2023-02-05T22:42:23.136Z,56.82
2023-02-05T22:44:49.906Z,57.30
2023-02-05T22:47:22.082Z,57.42
2023-02-05T22:49:51.536Z,57.75
2023-02-05T22:52:18.337Z,57.82
2023-02-05T22:54:51.284Z,59.40
2023-02-05T22:57:18.135Z,59.77
2023-02-05T22:59:50.325Z,60.22
2023-02-05T23:02:22.281Z,60.39
2023-02-05T23:04:52.762Z,60.09
2023-02-05T23:07:19.502Z,60.22
2023-02-05T23:09:46.374Z,59.96
2023-02-05T23:12:13.288Z,60.28
2023-02-05T23:14:43.466Z,60.27
2023-02-05T23:17:10.263Z,59.50
2023-02-05T23:19:47.072Z,59.59
2023-02-05T23:22:13.779Z,59.28
2023-02-05T23:24:43.823Z,59.18
2023-02-05T23:27:14.884Z,59.15
2023-02-05T23:29:44.804Z,59.17
2023-02-05T23:32:25.136Z,59.53
2023-02-05T23:34:52.100Z,59.25
2023-02-05T23:37:23.574Z,59.50
2023-02-05T23:39:53.227Z,59.45
2023-02-05T23:42:23.122Z,59.86
2023-02-05T23:44:52.316Z,59.96
2023-02-05T23:47:24.102Z,60.24
2023-02-05T23:49:53.548Z,59.87
2023-02-05T23:52:21.346Z,59.73
2023-02-05T23:54:50.390Z,60.16
2023-02-05T23:57:22.229Z,59.63
2023-02-05T23:59:49.323Z,59.39
